sensor_id;sensor_type;location;lat;lon;timestamp;pressure;altitude;pressure_sealevel;temperature;humidity
36192;BME280;22233;42.708;23.360;2022-07-10T00:01:17;95337.03;;;18.30;73.00
36192;BME280;22233;42.708;23.360;2022-07-10T00:03:42;95331.81;;;18.68;71.13
36192;BME280;22233;42.708;23.360;2022-07-10T00:06:09;95331.66;;;18.80;71.53
36192;BME280;22233;42.708;23.360;2022-07-10T00:08:34;95330.88;;;18.80;70.89
36192;BME280;22233;42.708;23.360;2022-07-10T00:11:00;95332.09;;;19.09;70.50
36192;BME280;22233;42.708;23.360;2022-07-10T00:13:25;95330.31;;;18.93;70.39
36192;BME280;22233;42.708;23.360;2022-07-10T00:15:50;95327.88;;;18.69;70.99
36192;BME280;22233;42.708;23.360;2022-07-10T00:18:16;95325.69;;;19.01;70.32
36192;BME280;22233;42.708;23.360;2022-07-10T00:20:41;95325.69;;;19.01;69.90
36192;BME280;22233;42.708;23.360;2022-07-10T00:23:06;95315.53;;;19.05;69.88
36192;BME280;22233;42.708;23.360;2022-07-10T00:25:31;95321.66;;;18.72;71.20
36192;BME280;22233;42.708;23.360;2022-07-10T00:27:57;95320.06;;;18.48;71.95
36192;BME280;22233;42.708;23.360;2022-07-10T00:30:22;95307.97;;;18.29;72.36
36192;BME280;22233;42.708;23.360;2022-07-10T00:32:47;95320.94;;;18.09;72.83
36192;BME280;22233;42.708;23.360;2022-07-10T00:35:12;95312.84;;;18.40;72.11
36192;BME280;22233;42.708;23.360;2022-07-10T00:37:38;95312.44;;;18.18;72.58
36192;BME280;22233;42.708;23.360;2022-07-10T00:40:03;95322.16;;;18.12;73.05
36192;BME280;22233;42.708;23.360;2022-07-10T00:42:29;95307.13;;;18.06;73.46
36192;BME280;22233;42.708;23.360;2022-07-10T00:44:55;95315.13;;;18.14;73.01
36192;BME280;22233;42.708;23.360;2022-07-10T00:47:20;95309.13;;;18.09;73.57
36192;BME280;22233;42.708;23.360;2022-07-10T00:49:46;95306.53;;;17.96;74.05
36192;BME280;22233;42.708;23.360;2022-07-10T00:52:13;95302.72;;;18.01;73.26
36192;BME280;22233;42.708;23.360;2022-07-10T00:54:40;95294.06;;;18.22;72.43
36192;BME280;22233;42.708;23.360;2022-07-10T00:57:06;95294.84;;;18.00;73.63
36192;BME280;22233;42.708;23.360;2022-07-10T00:59:32;95294.59;;;18.08;73.24
36192;BME280;22233;42.708;23.360;2022-07-10T01:01:57;95293.66;;;17.62;74.92
36192;BME280;22233;42.708;23.360;2022-07-10T01:04:22;95292.09;;;17.25;75.39
36192;BME280;22233;42.708;23.360;2022-07-10T01:06:49;95296.69;;;17.76;73.69
36192;BME280;22233;42.708;23.360;2022-07-10T01:09:14;95300.19;;;17.92;73.37
36192;BME280;22233;42.708;23.360;2022-07-10T01:11:39;95286.44;;;17.53;74.18
36192;BME280;22233;42.708;23.360;2022-07-10T01:14:04;95289.16;;;17.34;75.62
36192;BME280;22233;42.708;23.360;2022-07-10T01:16:30;95288.66;;;17.48;74.93
36192;BME280;22233;42.708;23.360;2022-07-10T01:18:56;95291.13;;;17.72;74.70
36192;BME280;22233;42.708;23.360;2022-07-10T01:23:50;95293.56;;;18.16;72.82
36192;BME280;22233;42.708;23.360;2022-07-10T01:26:15;95283.38;;;18.40;72.21
36192;BME280;22233;42.708;23.360;2022-07-10T01:28:40;95280.88;;;18.54;71.90
36192;BME280;22233;42.708;23.360;2022-07-10T01:31:06;95282.59;;;18.40;71.26
36192;BME280;22233;42.708;23.360;2022-07-10T01:33:31;95280.84;;;18.08;72.50
36192;BME280;22233;42.708;23.360;2022-07-10T01:35:56;95280.78;;;18.05;72.70
36192;BME280;22233;42.708;23.360;2022-07-10T01:38:22;95277.31;;;18.31;71.74
36192;BME280;22233;42.708;23.360;2022-07-10T01:40:47;95275.88;;;17.94;73.20
36192;BME280;22233;42.708;23.360;2022-07-10T01:43:12;95267.47;;;18.07;72.24
36192;BME280;22233;42.708;23.360;2022-07-10T01:45:37;95265.00;;;17.82;73.48
36192;BME280;22233;42.708;23.360;2022-07-10T01:48:03;95275.44;;;17.73;73.49
36192;BME280;22233;42.708;23.360;2022-07-10T01:50:28;95261.34;;;17.35;75.20
36192;BME280;22233;42.708;23.360;2022-07-10T01:52:53;95270.16;;;17.64;74.01
36192;BME280;22233;42.708;23.360;2022-07-10T01:55:19;95266.47;;;17.76;73.04
36192;BME280;22233;42.708;23.360;2022-07-10T01:57:44;95267.00;;;17.43;74.39
36192;BME280;22233;42.708;23.360;2022-07-10T02:00:09;95265.59;;;17.52;74.10
36192;BME280;22233;42.708;23.360;2022-07-10T02:02:35;95260.59;;;17.19;75.23
36192;BME280;22233;42.708;23.360;2022-07-10T02:05:00;95254.06;;;17.43;74.49
36192;BME280;22233;42.708;23.360;2022-07-10T02:07:25;95259.69;;;17.50;73.84
36192;BME280;22233;42.708;23.360;2022-07-10T02:09:51;95265.44;;;17.26;74.97
36192;BME280;22233;42.708;23.360;2022-07-10T02:12:16;95257.38;;;17.33;74.83
36192;BME280;22233;42.708;23.360;2022-07-10T02:14:42;95256.50;;;17.29;75.08
36192;BME280;22233;42.708;23.360;2022-07-10T02:17:07;95257.25;;;17.65;75.31
36192;BME280;22233;42.708;23.360;2022-07-10T02:19:33;95263.00;;;17.99;73.58
36192;BME280;22233;42.708;23.360;2022-07-10T02:21:59;95261.53;;;18.05;72.14
36192;BME280;22233;42.708;23.360;2022-07-10T02:24:24;95267.25;;;18.39;71.12
36192;BME280;22233;42.708;23.360;2022-07-10T02:26:50;95263.53;;;17.85;72.34
36192;BME280;22233;42.708;23.360;2022-07-10T02:29:15;95255.06;;;17.93;72.11
36192;BME280;22233;42.708;23.360;2022-07-10T02:31:41;95249.03;;;18.07;72.03
36192;BME280;22233;42.708;23.360;2022-07-10T02:34:12;95253.25;;;18.01;72.14
36192;BME280;22233;42.708;23.360;2022-07-10T02:36:38;95250.41;;;18.17;71.13
36192;BME280;22233;42.708;23.360;2022-07-10T02:39:04;95258.03;;;17.85;72.63
36192;BME280;22233;42.708;23.360;2022-07-10T02:41:29;95260.06;;;17.88;71.64
36192;BME280;22233;42.708;23.360;2022-07-10T02:43:54;95263.72;;;17.76;72.31
36192;BME280;22233;42.708;23.360;2022-07-10T02:46:20;95251.38;;;17.47;73.59
36192;BME280;22233;42.708;23.360;2022-07-10T02:48:45;95261.75;;;17.76;72.80
36192;BME280;22233;42.708;23.360;2022-07-10T02:51:10;95261.06;;;17.80;73.12
36192;BME280;22233;42.708;23.360;2022-07-10T02:53:35;95262.66;;;17.61;73.07
36192;BME280;22233;42.708;23.360;2022-07-10T02:56:01;95258.38;;;17.64;73.58
36192;BME280;22233;42.708;23.360;2022-07-10T02:58:26;95259.03;;;17.02;75.23
36192;BME280;22233;42.708;23.360;2022-07-10T03:00:51;95265.97;;;17.31;74.68
36192;BME280;22233;42.708;23.360;2022-07-10T03:03:17;95265.44;;;17.26;74.26
36192;BME280;22233;42.708;23.360;2022-07-10T03:05:43;95278.31;;;17.41;74.41
36192;BME280;22233;42.708;23.360;2022-07-10T03:08:08;95271.19;;;17.36;74.03
36192;BME280;22233;42.708;23.360;2022-07-10T03:10:33;95278.91;;;17.50;73.40
36192;BME280;22233;42.708;23.360;2022-07-10T03:12:58;95275.19;;;17.23;73.90
36192;BME280;22233;42.708;23.360;2022-07-10T03:15:24;95279.03;;;17.38;73.70
36192;BME280;22233;42.708;23.360;2022-07-10T03:17:49;95284.72;;;17.65;73.59
36192;BME280;22233;42.708;23.360;2022-07-10T03:20:14;95283.88;;;17.25;74.35
36192;BME280;22233;42.708;23.360;2022-07-10T03:22:40;95286.34;;;17.50;73.49
36192;BME280;22233;42.708;23.360;2022-07-10T03:25:05;95281.28;;;17.52;72.94
36192;BME280;22233;42.708;23.360;2022-07-10T03:27:30;95288.72;;;17.32;74.40
36192;BME280;22233;42.708;23.360;2022-07-10T03:29:56;95284.81;;;17.33;73.46
36192;BME280;22233;42.708;23.360;2022-07-10T03:32:21;95286.06;;;17.35;73.44
36192;BME280;22233;42.708;23.360;2022-07-10T03:34:46;95286.66;;;17.45;73.23
36192;BME280;22233;42.708;23.360;2022-07-10T03:37:12;95279.78;;;17.35;73.61
36192;BME280;22233;42.708;23.360;2022-07-10T03:39:37;95284.19;;;17.40;73.66
36192;BME280;22233;42.708;23.360;2022-07-10T03:42:02;95277.38;;;17.33;73.68
36192;BME280;22233;42.708;23.360;2022-07-10T03:44:28;95278.63;;;17.55;74.01
36192;BME280;22233;42.708;23.360;2022-07-10T03:46:53;95282.09;;;17.33;73.77
36192;BME280;22233;42.708;23.360;2022-07-10T03:49:18;95277.66;;;17.28;73.63
36192;BME280;22233;42.708;23.360;2022-07-10T03:51:44;95275.28;;;17.46;72.95
36192;BME280;22233;42.708;23.360;2022-07-10T03:54:09;95275.97;;;17.59;72.88
36192;BME280;22233;42.708;23.360;2022-07-10T03:56:34;95281.31;;;17.71;72.29
36192;BME280;22233;42.708;23.360;2022-07-10T03:59:19;95276.03;;;17.43;73.59
36192;BME280;22233;42.708;23.360;2022-07-10T04:01:44;95275.03;;;17.71;72.49
36192;BME280;22233;42.708;23.360;2022-07-10T04:04:09;95269.28;;;17.80;71.90
36192;BME280;22233;42.708;23.360;2022-07-10T04:06:34;95270.59;;;17.27;74.15
36192;BME280;22233;42.708;23.360;2022-07-10T04:09:03;95261.25;;;17.32;73.79
36192;BME280;22233;42.708;23.360;2022-07-10T04:11:29;95268.28;;;17.68;73.17
36192;BME280;22233;42.708;23.360;2022-07-10T04:13:54;95263.91;;;17.09;74.43
36192;BME280;22233;42.708;23.360;2022-07-10T04:16:19;95265.38;;;17.42;73.92
36192;BME280;22233;42.708;23.360;2022-07-10T04:18:45;95263.72;;;17.37;74.25
36192;BME280;22233;42.708;23.360;2022-07-10T04:21:10;95267.13;;;17.69;72.85
36192;BME280;22233;42.708;23.360;2022-07-10T04:23:35;95260.25;;;17.79;73.21
36192;BME280;22233;42.708;23.360;2022-07-10T04:26:00;95258.78;;;18.05;71.53
36192;BME280;22233;42.708;23.360;2022-07-10T04:28:26;95251.53;;;17.93;72.47
36192;BME280;22233;42.708;23.360;2022-07-10T04:30:51;95258.09;;;17.69;73.30
36192;BME280;22233;42.708;23.360;2022-07-10T04:33:16;95259.19;;;17.84;72.39
36192;BME280;22233;42.708;23.360;2022-07-10T04:35:42;95264.41;;;17.89;72.42
36192;BME280;22233;42.708;23.360;2022-07-10T04:38:07;95264.50;;;17.76;72.75
36192;BME280;22233;42.708;23.360;2022-07-10T04:40:33;95265.75;;;17.99;72.32
36192;BME280;22233;42.708;23.360;2022-07-10T04:42:58;95260.78;;;18.27;71.32
36192;BME280;22233;42.708;23.360;2022-07-10T04:45:23;95259.22;;;18.07;71.42
36192;BME280;22233;42.708;23.360;2022-07-10T04:47:48;95258.41;;;17.83;72.45
36192;BME280;22233;42.708;23.360;2022-07-10T04:50:14;95257.06;;;17.96;71.74
36192;BME280;22233;42.708;23.360;2022-07-10T04:52:39;95256.91;;;18.09;71.43
36192;BME280;22233;42.708;23.360;2022-07-10T04:55:04;95253.38;;;18.08;71.42
36192;BME280;22233;42.708;23.360;2022-07-10T04:57:30;95255.06;;;17.93;71.11
36192;BME280;22233;42.708;23.360;2022-07-10T04:59:55;95257.75;;;17.90;72.62
36192;BME280;22233;42.708;23.360;2022-07-10T05:02:21;95264.69;;;17.84;72.15
36192;BME280;22233;42.708;23.360;2022-07-10T05:04:47;95261.94;;;17.84;72.11
36192;BME280;22233;42.708;23.360;2022-07-10T05:07:12;95252.16;;;18.06;71.63
36192;BME280;22233;42.708;23.360;2022-07-10T05:09:39;95266.28;;;18.27;71.30
36192;BME280;22233;42.708;23.360;2022-07-10T05:12:04;95256.00;;;18.24;71.25
36192;BME280;22233;42.708;23.360;2022-07-10T05:14:30;95259.97;;;18.04;72.25
36192;BME280;22233;42.708;23.360;2022-07-10T05:16:55;95269.47;;;17.87;72.49
36192;BME280;22233;42.708;23.360;2022-07-10T05:19:20;95249.66;;;18.20;70.51
36192;BME280;22233;42.708;23.360;2022-07-10T05:21:46;95246.03;;;18.16;71.14
36192;BME280;22233;42.708;23.360;2022-07-10T05:24:11;95251.72;;;18.04;71.95
36192;BME280;22233;42.708;23.360;2022-07-10T05:26:36;95246.09;;;18.43;70.24
36192;BME280;22233;42.708;23.360;2022-07-10T05:29:01;95246.22;;;18.27;71.24
36192;BME280;22233;42.708;23.360;2022-07-10T05:31:27;95250.94;;;18.26;71.02
36192;BME280;22233;42.708;23.360;2022-07-10T05:33:52;95246.22;;;18.27;71.11
36192;BME280;22233;42.708;23.360;2022-07-10T05:36:17;95256.97;;;18.12;71.39
36192;BME280;22233;42.708;23.360;2022-07-10T05:38:42;95251.19;;;18.41;70.50
36192;BME280;22233;42.708;23.360;2022-07-10T05:41:08;95247.56;;;18.13;71.57
36192;BME280;22233;42.708;23.360;2022-07-10T05:43:34;95250.66;;;18.31;70.53
36192;BME280;22233;42.708;23.360;2022-07-10T05:45:59;95246.09;;;18.43;70.37
36192;BME280;22233;42.708;23.360;2022-07-10T05:48:24;95256.69;;;18.41;70.23
36192;BME280;22233;42.708;23.360;2022-07-10T05:50:50;95253.00;;;18.33;70.38
36192;BME280;22233;42.708;23.360;2022-07-10T05:53:15;95255.22;;;18.47;69.80
36192;BME280;22233;42.708;23.360;2022-07-10T05:55:40;95257.66;;;18.29;70.50
36192;BME280;22233;42.708;23.360;2022-07-10T05:58:06;95251.53;;;18.16;69.68
36192;BME280;22233;42.708;23.360;2022-07-10T06:00:31;95247.69;;;18.21;70.87
36192;BME280;22233;42.708;23.360;2022-07-10T06:02:56;95263.94;;;18.52;69.99
36192;BME280;22233;42.708;23.360;2022-07-10T06:05:21;95247.78;;;18.47;69.06
36192;BME280;22233;42.708;23.360;2022-07-10T06:07:47;95245.44;;;18.49;69.54
36192;BME280;22233;42.708;23.360;2022-07-10T06:10:12;95252.34;;;18.86;68.16
36192;BME280;22233;42.708;23.360;2022-07-10T06:12:38;95257.53;;;19.18;67.00
36192;BME280;22233;42.708;23.360;2022-07-10T06:15:03;95245.19;;;19.08;67.94
36192;BME280;22233;42.708;23.360;2022-07-10T06:17:29;95256.97;;;19.08;67.16
36192;BME280;22233;42.708;23.360;2022-07-10T06:19:54;95245.97;;;19.08;67.17
36192;BME280;22233;42.708;23.360;2022-07-10T06:22:19;95231.84;;;19.10;67.41
36192;BME280;22233;42.708;23.360;2022-07-10T06:25:06;95240.75;;;19.30;66.87
36192;BME280;22233;42.708;23.360;2022-07-10T06:27:32;95252.81;;;19.48;66.19
36192;BME280;22233;42.708;23.360;2022-07-10T06:29:58;95243.81;;;19.55;65.14
36192;BME280;22233;42.708;23.360;2022-07-10T06:32:24;95243.81;;;19.55;64.91
36192;BME280;22233;42.708;23.360;2022-07-10T06:34:49;95245.75;;;19.21;66.16
36192;BME280;22233;42.708;23.360;2022-07-10T06:37:15;95241.72;;;19.45;66.00
36192;BME280;22233;42.708;23.360;2022-07-10T06:39:40;95245.44;;;19.60;65.35
36192;BME280;22233;42.708;23.360;2022-07-10T06:42:06;95247.19;;;19.41;66.19
36192;BME280;22233;42.708;23.360;2022-07-10T06:44:31;95247.41;;;19.89;65.17
36192;BME280;22233;42.708;23.360;2022-07-10T06:46:57;95235.09;;;19.49;66.09
36192;BME280;22233;42.708;23.360;2022-07-10T06:49:41;95239.19;;;19.63;65.61
36192;BME280;22233;42.708;23.360;2022-07-10T06:52:07;95227.13;;;19.71;65.52
36192;BME280;22233;42.708;23.360;2022-07-10T06:54:32;95229.19;;;19.81;64.58
36192;BME280;22233;42.708;23.360;2022-07-10T06:56:58;95233.28;;;19.94;64.37
36192;BME280;22233;42.708;23.360;2022-07-10T06:59:24;95222.31;;;20.02;64.28
36192;BME280;22233;42.708;23.360;2022-07-10T07:01:49;95222.56;;;20.27;63.42
36192;BME280;22233;42.708;23.360;2022-07-10T07:04:14;95220.13;;;20.18;63.73
36192;BME280;22233;42.708;23.360;2022-07-10T07:06:40;95222.75;;;20.45;62.17
36192;BME280;22233;42.708;23.360;2022-07-10T07:09:05;95227.81;;;20.39;62.62
36192;BME280;22233;42.708;23.360;2022-07-10T07:11:31;95229.53;;;20.58;62.15
36192;BME280;22233;42.708;23.360;2022-07-10T07:13:56;95234.44;;;20.31;62.23
36192;BME280;22233;42.708;23.360;2022-07-10T07:16:21;95231.63;;;20.27;62.32
36192;BME280;22233;42.708;23.360;2022-07-10T07:18:52;95228.75;;;20.13;62.67
36192;BME280;22233;42.708;23.360;2022-07-10T07:21:20;95233.53;;;20.20;63.41
36192;BME280;22233;42.708;23.360;2022-07-10T07:24:04;95229.44;;;20.03;63.81
36192;BME280;22233;42.708;23.360;2022-07-10T07:26:30;95229.81;;;20.01;64.11
36192;BME280;22233;42.708;23.360;2022-07-10T07:28:55;95232.59;;;20.05;63.56
36192;BME280;22233;42.708;23.360;2022-07-10T07:31:20;95230.22;;;20.03;64.48
36192;BME280;22233;42.708;23.360;2022-07-10T07:33:46;95222.66;;;20.38;63.82
36192;BME280;22233;42.708;23.360;2022-07-10T07:36:11;95230.19;;;20.00;64.51
36192;BME280;22233;42.708;23.360;2022-07-10T07:38:36;95213.22;;;20.42;63.21
36192;BME280;22233;42.708;23.360;2022-07-10T07:41:02;95222.03;;;20.55;62.88
36192;BME280;22233;42.708;23.360;2022-07-10T07:43:27;95217.28;;;20.55;62.85
36192;BME280;22233;42.708;23.360;2022-07-10T07:45:52;95218.44;;;20.99;62.56
36192;BME280;22233;42.708;23.360;2022-07-10T07:48:17;95204.78;;;21.28;60.68
36192;BME280;22233;42.708;23.360;2022-07-10T07:50:43;95214.03;;;21.64;59.26
36192;BME280;22233;42.708;23.360;2022-07-10T07:53:08;95215.19;;;21.56;60.22
36192;BME280;22233;42.708;23.360;2022-07-10T07:55:33;95209.72;;;21.70;59.72
36192;BME280;22233;42.708;23.360;2022-07-10T07:57:59;95215.78;;;22.16;59.08
36192;BME280;22233;42.708;23.360;2022-07-10T08:00:26;95205.03;;;21.85;58.83
36192;BME280;22233;42.708;23.360;2022-07-10T08:02:52;95200.75;;;22.09;56.50
36192;BME280;22233;42.708;23.360;2022-07-10T08:05:18;95205.06;;;22.00;57.21
36192;BME280;22233;42.708;23.360;2022-07-10T08:07:49;95204.66;;;22.01;56.43
36192;BME280;22233;42.708;23.360;2022-07-10T08:10:16;95201.13;;;22.19;55.90
36192;BME280;22233;42.708;23.360;2022-07-10T08:12:42;95202.66;;;21.94;56.26
36192;BME280;22233;42.708;23.360;2022-07-10T08:15:08;95197.63;;;22.29;55.74
36192;BME280;22233;42.708;23.360;2022-07-10T08:17:34;95203.94;;;22.33;55.81
36192;BME280;22233;42.708;23.360;2022-07-10T08:20:00;95202.38;;;22.53;54.60
36192;BME280;22233;42.708;23.360;2022-07-10T08:22:25;95203.16;;;22.43;56.00
36192;BME280;22233;42.708;23.360;2022-07-10T08:24:51;95205.94;;;22.65;54.41
36192;BME280;22233;42.708;23.360;2022-07-10T08:27:16;95211.84;;;22.63;53.53
36192;BME280;22233;42.708;23.360;2022-07-10T08:29:41;95205.56;;;22.70;53.58
36192;BME280;22233;42.708;23.360;2022-07-10T08:32:06;95209.50;;;22.76;53.67
36192;BME280;22233;42.708;23.360;2022-07-10T08:34:34;95215.03;;;22.72;51.68
36192;BME280;22233;42.708;23.360;2022-07-10T08:36:59;95207.13;;;22.71;52.33
36192;BME280;22233;42.708;23.360;2022-07-10T08:39:25;95206.31;;;23.06;51.42
36192;BME280;22233;42.708;23.360;2022-07-10T08:41:51;95213.84;;;22.81;51.34
36192;BME280;22233;42.708;23.360;2022-07-10T08:44:17;95207.88;;;23.00;51.73
36192;BME280;22233;42.708;23.360;2022-07-10T08:46:43;95208.31;;;22.84;51.84
36192;BME280;22233;42.708;23.360;2022-07-10T08:49:09;95207.84;;;23.29;51.92
36192;BME280;22233;42.708;23.360;2022-07-10T08:51:37;95201.03;;;23.55;51.48
36192;BME280;22233;42.708;23.360;2022-07-10T08:54:03;95197.84;;;23.57;50.39
36192;BME280;22233;42.708;23.360;2022-07-10T08:56:29;95198.97;;;23.70;50.08
36192;BME280;22233;42.708;23.360;2022-07-10T08:58:55;95190.41;;;23.32;50.73
36192;BME280;22233;42.708;23.360;2022-07-10T09:01:21;95199.13;;;23.27;50.86
36192;BME280;22233;42.708;23.360;2022-07-10T09:03:51;95194.38;;;23.31;49.92
36192;BME280;22233;42.708;23.360;2022-07-10T09:06:16;95187.94;;;23.59;50.13
36192;BME280;22233;42.708;23.360;2022-07-10T09:11:13;95185.69;;;24.10;49.31
36192;BME280;22233;42.708;23.360;2022-07-10T09:13:49;95195.44;;;24.32;48.38
36192;BME280;22233;42.708;23.360;2022-07-10T09:16:24;95194.09;;;23.99;48.78
36192;BME280;22233;42.708;23.360;2022-07-10T09:18:50;95192.88;;;24.04;47.61
36192;BME280;22233;42.708;23.360;2022-07-10T09:21:15;95185.19;;;24.29;48.46
36192;BME280;22233;42.708;23.360;2022-07-10T09:23:41;95187.25;;;24.70;47.37
36192;BME280;22233;42.708;23.360;2022-07-10T09:26:06;95191.63;;;24.12;48.01
36192;BME280;22233;42.708;23.360;2022-07-10T09:28:32;95188.16;;;24.01;48.43
36192;BME280;22233;42.708;23.360;2022-07-10T09:30:57;95185.88;;;23.74;48.41
36192;BME280;22233;42.708;23.360;2022-07-10T09:33:24;95180.13;;;24.17;47.61
36192;BME280;22233;42.708;23.360;2022-07-10T09:35:59;95186.66;;;23.85;49.08
36192;BME280;22233;42.708;23.360;2022-07-10T09:38:47;95179.53;;;23.81;49.26
36192;BME280;22233;42.708;23.360;2022-07-10T09:41:29;95180.97;;;24.07;48.15
36192;BME280;22233;42.708;23.360;2022-07-10T09:44:02;95175.09;;;24.54;47.28
36192;BME280;22233;42.708;23.360;2022-07-10T09:46:30;95175.25;;;24.81;46.27
36192;BME280;22233;42.708;23.360;2022-07-10T09:49:06;95172.09;;;24.79;46.89
36192;BME280;22233;42.708;23.360;2022-07-10T09:51:35;95168.97;;;25.15;45.24
36192;BME280;22233;42.708;23.360;2022-07-10T09:54:01;95169.63;;;25.64;44.65
36192;BME280;22233;42.708;23.360;2022-07-10T09:56:27;95167.75;;;25.84;44.00
36192;BME280;22233;42.708;23.360;2022-07-10T09:58:56;95169.56;;;26.25;43.28
36192;BME280;22233;42.708;23.360;2022-07-10T10:01:24;95162.56;;;25.86;43.81
36192;BME280;22233;42.708;23.360;2022-07-10T10:03:50;95152.09;;;25.67;43.85
36192;BME280;22233;42.708;23.360;2022-07-10T10:06:15;95163.31;;;25.60;44.20
36192;BME280;22233;42.708;23.360;2022-07-10T10:08:47;95164.72;;;26.06;43.51
36192;BME280;22233;42.708;23.360;2022-07-10T10:11:14;95159.06;;;25.14;43.75
36192;BME280;22233;42.708;23.360;2022-07-10T10:13:40;95164.09;;;25.29;43.83
36192;BME280;22233;42.708;23.360;2022-07-10T10:16:07;95153.97;;;25.43;44.08
36192;BME280;22233;42.708;23.360;2022-07-10T10:18:33;95157.78;;;25.25;44.28
36192;BME280;22233;42.708;23.360;2022-07-10T10:20:59;95157.47;;;25.50;44.47
36192;BME280;22233;42.708;23.360;2022-07-10T10:23:25;95151.53;;;25.48;44.15
36192;BME280;22233;42.708;23.360;2022-07-10T10:25:51;95154.56;;;25.92;43.94
36192;BME280;22233;42.708;23.360;2022-07-10T10:28:17;95147.25;;;25.40;43.79
36192;BME280;22233;42.708;23.360;2022-07-10T10:30:46;95137.44;;;25.63;44.77
36192;BME280;22233;42.708;23.360;2022-07-10T10:35:55;95140.13;;;25.70;43.81
36192;BME280;22233;42.708;23.360;2022-07-10T10:38:20;95146.34;;;25.50;44.70
36192;BME280;22233;42.708;23.360;2022-07-10T10:40:45;95150.41;;;25.04;44.63
36192;BME280;22233;42.708;23.360;2022-07-10T10:43:19;95147.16;;;24.75;47.74
36192;BME280;22233;42.708;23.360;2022-07-10T10:45:45;95141.84;;;24.88;48.67
36192;BME280;22233;42.708;23.360;2022-07-10T10:48:15;95142.25;;;25.28;47.30
36192;BME280;22233;42.708;23.360;2022-07-10T10:50:53;95138.78;;;25.51;45.07
36192;BME280;22233;42.708;23.360;2022-07-10T10:58:24;95130.44;;;25.51;44.08
36192;BME280;22233;42.708;23.360;2022-07-10T11:00:50;95123.44;;;25.39;44.20
36192;BME280;22233;42.708;23.360;2022-07-10T11:03:16;95123.53;;;25.32;44.71
36192;BME280;22233;42.708;23.360;2022-07-10T11:05:43;95130.75;;;25.26;44.61
36192;BME280;22233;42.708;23.360;2022-07-10T11:08:08;95129.63;;;25.81;45.10
36192;BME280;22233;42.708;23.360;2022-07-10T11:10:38;95136.22;;;26.22;45.87
36192;BME280;22233;42.708;23.360;2022-07-10T11:13:04;95130.28;;;26.20;44.90
36192;BME280;22233;42.708;23.360;2022-07-10T11:15:30;95132.88;;;26.34;44.08
36192;BME280;22233;42.708;23.360;2022-07-10T11:17:58;95130.69;;;26.45;43.83
36192;BME280;22233;42.708;23.360;2022-07-10T11:20:23;95125.97;;;26.42;43.59
36192;BME280;22233;42.708;23.360;2022-07-10T11:25:24;95124.53;;;26.58;42.28
36192;BME280;22233;42.708;23.360;2022-07-10T11:30:20;95131.09;;;26.44;41.93
36192;BME280;22233;42.708;23.360;2022-07-10T11:32:46;95127.16;;;26.41;42.04
36192;BME280;22233;42.708;23.360;2022-07-10T11:35:13;95125.34;;;26.58;41.80
36192;BME280;22233;42.708;23.360;2022-07-10T11:37:54;95118.91;;;26.61;41.27
36192;BME280;22233;42.708;23.360;2022-07-10T11:40:19;95122.16;;;26.56;42.20
36192;BME280;22233;42.708;23.360;2022-07-10T11:42:48;95124.88;;;26.60;42.07
36192;BME280;22233;42.708;23.360;2022-07-10T11:45:24;95120.81;;;26.41;42.13
36192;BME280;22233;42.708;23.360;2022-07-10T11:47:50;95123.97;;;26.43;43.06
36192;BME280;22233;42.708;23.360;2022-07-10T11:50:15;95127.84;;;26.49;42.13
36192;BME280;22233;42.708;23.360;2022-07-10T11:52:40;95122.22;;;26.53;42.35
36192;BME280;22233;42.708;23.360;2022-07-10T11:55:15;95123.44;;;26.75;40.51
36192;BME280;22233;42.708;23.360;2022-07-10T11:57:41;95125.97;;;26.66;40.59
36192;BME280;22233;42.708;23.360;2022-07-10T12:00:06;95112.44;;;26.88;40.36
36192;BME280;22233;42.708;23.360;2022-07-10T12:02:32;95116.88;;;26.85;41.15
36192;BME280;22233;42.708;23.360;2022-07-10T12:04:58;95116.47;;;26.63;42.37
36192;BME280;22233;42.708;23.360;2022-07-10T12:07:23;95125.09;;;26.73;41.90
36192;BME280;22233;42.708;23.360;2022-07-10T12:09:54;95120.78;;;27.12;40.92
36192;BME280;22233;42.708;23.360;2022-07-10T12:12:22;95124.91;;;27.03;40.66
36192;BME280;22233;42.708;23.360;2022-07-10T12:14:47;95126.25;;;26.95;41.38
36192;BME280;22233;42.708;23.360;2022-07-10T12:17:12;95127.19;;;26.65;41.64
36192;BME280;22233;42.708;23.360;2022-07-10T12:19:38;95129.03;;;26.95;40.94
36192;BME280;22233;42.708;23.360;2022-07-10T12:22:06;95119.56;;;26.69;41.30
36192;BME280;22233;42.708;23.360;2022-07-10T12:24:32;95126.56;;;26.30;40.84
36192;BME280;22233;42.708;23.360;2022-07-10T12:26:58;95127.41;;;26.50;40.43
36192;BME280;22233;42.708;23.360;2022-07-10T12:29:27;95129.28;;;26.34;40.06
36192;BME280;22233;42.708;23.360;2022-07-10T12:31:53;95124.06;;;26.36;40.36
36192;BME280;22233;42.708;23.360;2022-07-10T12:34:20;95127.84;;;26.49;40.21
36192;BME280;22233;42.708;23.360;2022-07-10T12:36:57;95138.47;;;26.30;40.15
36192;BME280;22233;42.708;23.360;2022-07-10T12:39:23;95134.56;;;26.28;39.83
36192;BME280;22233;42.708;23.360;2022-07-10T12:42:02;95129.88;;;26.21;39.48
36192;BME280;22233;42.708;23.360;2022-07-10T12:44:39;95132.00;;;26.37;39.72
36192;BME280;22233;42.708;23.360;2022-07-10T12:47:08;95121.94;;;26.20;39.06
36192;BME280;22233;42.708;23.360;2022-07-10T12:52:21;95123.56;;;26.17;40.56
36192;BME280;22233;42.708;23.360;2022-07-10T12:54:47;95123.19;;;26.42;39.10
36192;BME280;22233;42.708;23.360;2022-07-10T12:57:12;95122.28;;;26.73;38.89
36192;BME280;22233;42.708;23.360;2022-07-10T12:59:38;95125.19;;;26.65;39.99
36192;BME280;22233;42.708;23.360;2022-07-10T13:02:19;95132.22;;;26.74;40.03
36192;BME280;22233;42.708;23.360;2022-07-10T13:04:51;95125.81;;;26.77;40.84
36192;BME280;22233;42.708;23.360;2022-07-10T13:07:17;95128.19;;;26.98;40.73